Tucson, AZ (85749)

8:25 PM MST on August 27, 2016 (GMT -0700)
Saguaro Hills Estates | | Change Station

Elev 2765 ft 32.30 °N, 110.76 °W | Updated 6 seconds ago

Clear
Clear
78.6 °F
Feels Like 79 °F
N
0.0
Wind Variable Wind from West
Gusts 2.0 mph

Today
High -- | Low -- °F
--% Chance of Precip.
Yesterday
High -- | Low -- °F
Precip. -- in
Pressure 29.83 in
Visibility 10.0 miles
Clouds Clear
Heat Index 79 °F
Dew Point 46 °F
Humidity 32%
Rainfall 0.00 in
Snow Depth Not available.
5:55 AM 6:52 PM
Waning Crescent, 19% visible
METAR KDMA 280258Z AUTO 30006KT 10SM CLR 29/03 A2995 RMK AO2 SLP099 T02850033 53009 CHINO RWY30 $
Pressure 29.83 in
Visibility 10.0 miles
Clouds Clear
Heat Index 79 °F
Dew Point 46 °F
Humidity 32%
Rainfall 0.00 in
Snow Depth Not available.
5:55 AM 6:52 PM
Waning Crescent, 19% visible
METAR KDMA 280258Z AUTO 30006KT 10SM CLR 29/03 A2995 RMK AO2 SLP099 T02850033 53009 CHINO RWY30 $

10-Day Weather Forecast

Almanac

Astronomy

Aug. 27, 2016 Rise Set
Actual Time
Civil Twilight
Nautical Twilight
Astronomical Twilight
Moon
Length of Visible Light
Length of Day
Tomorrow will be .
, % of the Moon is Illuminated

Today's Extremes

State Highs State Lows

Community

WunderPhotos

Upload Photos

1,935,514 photos uploaded!

WunderBlog® & News

Nearby

Air Quality

  Air Quality AQ Index Pollutant
Not available.

Snow Depth

Station Depth Elevation

Earthquake Activity

City Distance Mag. Time & Date
Minimum magnitude displayed is 2.5.

Coastal Water Temperatures

Place Temperature

Stations

Nearby Weather Stations

Station Location Temp. Windchill Dew Point Humidity Wind Precip. Elev Updated Type
                   

Watches & Warnings

There are currently no watches in effect.